createdAt,value
2023-01-22T00:01:56.319Z,0.96
2023-01-22T00:04:01.640Z,0.97
2023-01-22T00:06:07.275Z,0.97
2023-01-22T00:08:12.615Z,1
2023-01-22T00:10:17.917Z,1.05
2023-01-22T00:12:24.142Z,1.02
2023-01-22T00:14:29.337Z,0.98
2023-01-22T00:16:34.889Z,0.99
2023-01-22T00:18:40.484Z,0.99
2023-01-22T00:20:46.116Z,0.99
2023-01-22T00:22:51.596Z,0.96
2023-01-22T00:24:56.662Z,0.99
2023-01-22T00:27:01.797Z,0.97
2023-01-22T00:29:06.904Z,0.98
2023-01-22T00:31:12.356Z,0.97
2023-01-22T00:33:17.978Z,0.93
2023-01-22T00:35:23.064Z,0.91
2023-01-22T00:37:28.473Z,0.91
2023-01-22T00:39:33.824Z,0.92
2023-01-22T00:41:39.189Z,0.92
2023-01-22T00:43:44.407Z,0.91
2023-01-22T00:45:49.578Z,0.9
2023-01-22T00:47:54.658Z,0.91
2023-01-22T00:50:00.148Z,0.92
2023-01-22T00:52:05.124Z,0.94
2023-01-22T00:54:10.665Z,0.89
2023-01-22T00:56:16.027Z,0.87
2023-01-22T00:58:21.677Z,0.85
2023-01-22T01:00:26.905Z,0.92
2023-01-22T01:02:32.368Z,0.85
2023-01-22T01:04:37.638Z,0.9
2023-01-22T01:06:42.590Z,0.91
2023-01-22T01:08:47.672Z,0.86
2023-01-22T01:10:52.962Z,0.88
2023-01-22T01:12:58.236Z,0.89
2023-01-22T01:15:03.398Z,0.91
2023-01-22T01:17:08.712Z,0.92
2023-01-22T01:19:14.091Z,0.88
2023-01-22T01:21:20.529Z,0.88
2023-01-22T01:23:26.055Z,0.82
2023-01-22T01:25:31.246Z,0.83
2023-01-22T01:27:36.383Z,0.87
2023-01-22T01:29:42.895Z,0.87
2023-01-22T01:31:48.265Z,0.86
2023-01-22T01:33:53.955Z,0.83
2023-01-22T01:35:59.164Z,0.8
2023-01-22T01:38:04.275Z,0.8
2023-01-22T01:40:09.381Z,0.84
2023-01-22T01:42:14.466Z,0.83
2023-01-22T01:44:19.617Z,0.82
2023-01-22T01:46:25.084Z,0.83
2023-01-22T01:48:30.563Z,0.79
2023-01-22T01:50:35.695Z,0.8
2023-01-22T01:52:41.173Z,0.81
2023-01-22T01:54:46.433Z,0.79
2023-01-22T01:56:51.592Z,0.81
2023-01-22T01:58:57.110Z,0.78
2023-01-22T02:01:02.549Z,0.81
2023-01-22T02:03:07.960Z,0.83
2023-01-22T02:05:13.104Z,0.83
2023-01-22T02:07:18.130Z,0.8
2023-01-22T02:09:23.394Z,0.8
2023-01-22T02:11:28.801Z,0.84
2023-01-22T02:13:33.820Z,0.85
2023-01-22T02:15:38.822Z,0.83
2023-01-22T02:17:44.012Z,0.83
2023-01-22T02:19:48.998Z,0.82
2023-01-22T02:21:54.205Z,0.84
2023-01-22T02:23:59.307Z,0.8
2023-01-22T02:26:05.541Z,0.8
2023-01-22T02:28:13.780Z,0.81
2023-01-22T02:30:19.255Z,0.81
2023-01-22T02:32:24.761Z,0.79
2023-01-22T02:34:30.187Z,0.79
2023-01-22T02:36:35.467Z,0.82
2023-01-22T02:38:40.986Z,0.82
2023-01-22T02:40:46.457Z,0.8
2023-01-22T02:42:51.591Z,0.82
2023-01-22T02:44:56.463Z,0.83
2023-01-22T02:47:02.201Z,0.8
2023-01-22T02:49:07.615Z,0.76
2023-01-22T02:51:13.161Z,0.77
2023-01-22T02:53:18.855Z,0.79
2023-01-22T02:55:24.071Z,0.79
2023-01-22T02:57:29.395Z,0.79
2023-01-22T02:59:34.511Z,0.8
2023-01-22T03:01:39.701Z,0.77
2023-01-22T03:03:44.762Z,0.78
2023-01-22T03:05:50.006Z,0.79
2023-01-22T03:07:54.977Z,0.8
2023-01-22T03:10:00.158Z,0.79
2023-01-22T03:12:05.366Z,0.79
2023-01-22T03:14:10.658Z,0.73
2023-01-22T03:16:15.980Z,0.73
2023-01-22T03:18:21.597Z,0.77
2023-01-22T03:20:26.823Z,0.78
2023-01-22T03:22:31.894Z,0.77
2023-01-22T03:24:36.954Z,0.76
2023-01-22T03:26:42.097Z,0.76
2023-01-22T03:28:47.535Z,0.77
2023-01-22T03:30:52.661Z,0.77
2023-01-22T03:32:58.109Z,0.75
2023-01-22T03:35:03.873Z,0.74
2023-01-22T03:37:08.983Z,0.74
2023-01-22T03:39:14.089Z,0.75
2023-01-22T03:41:19.225Z,0.74
2023-01-22T03:43:24.356Z,0.74
2023-01-22T03:45:29.773Z,0.75
2023-01-22T03:47:35.124Z,0.74
2023-01-22T03:49:40.210Z,0.7
2023-01-22T03:51:45.501Z,0.72
2023-01-22T03:53:50.660Z,0.73
2023-01-22T03:55:55.781Z,0.75
2023-01-22T03:58:00.891Z,0.76
2023-01-22T04:00:06.056Z,0.72
2023-01-22T04:02:11.178Z,0.73
2023-01-22T04:04:16.882Z,0.75
2023-01-22T04:06:22.063Z,0.73
2023-01-22T04:08:27.047Z,0.72
2023-01-22T04:10:32.531Z,0.72
2023-01-22T04:12:37.568Z,0.71
2023-01-22T04:14:42.989Z,0.7
2023-01-22T04:16:48.379Z,0.71
2023-01-22T04:18:53.947Z,0.69
2023-01-22T04:20:58.842Z,0.7
2023-01-22T04:23:04.488Z,0.72
2023-01-22T04:25:09.741Z,0.72
2023-01-22T04:27:15.931Z,0.71
2023-01-22T04:29:21.164Z,0.69
2023-01-22T04:31:26.352Z,0.68
2023-01-22T04:33:32.162Z,0.71
2023-01-22T04:35:37.382Z,0.7
2023-01-22T04:37:42.634Z,0.68
2023-01-22T04:39:48.955Z,0.72
2023-01-22T04:41:54.080Z,0.7
2023-01-22T04:43:59.580Z,0.69
2023-01-22T04:46:04.758Z,0.69
2023-01-22T04:48:10.747Z,0.68
2023-01-22T04:50:16.227Z,0.68
2023-01-22T04:52:22.837Z,0.66
2023-01-22T04:54:28.141Z,0.68
2023-01-22T04:56:33.253Z,0.68
2023-01-22T04:58:38.687Z,0.66
2023-01-22T05:00:43.846Z,0.64
2023-01-22T05:02:49.372Z,0.65
2023-01-22T05:04:54.711Z,0.64
2023-01-22T05:07:00.222Z,0.62
2023-01-22T05:09:05.786Z,0.62
2023-01-22T05:11:11.070Z,0.64
2023-01-22T05:13:15.971Z,0.63
2023-01-22T05:15:25.251Z,0.65
2023-01-22T05:17:31.038Z,0.64
2023-01-22T05:19:36.004Z,0.61
2023-01-22T05:21:41.132Z,0.64
2023-01-22T05:23:46.131Z,0.63
2023-01-22T05:25:51.452Z,0.63
2023-01-22T05:27:56.552Z,0.63
2023-01-22T05:30:01.649Z,0.64
2023-01-22T05:32:06.922Z,0.64
2023-01-22T05:34:12.162Z,0.64
2023-01-22T05:36:17.735Z,0.63
2023-01-22T05:38:23.399Z,0.62
2023-01-22T05:40:28.691Z,0.65
2023-01-22T05:42:33.604Z,0.61
2023-01-22T05:44:38.836Z,0.63
2023-01-22T05:46:44.005Z,0.63
2023-01-22T05:48:49.144Z,0.66
2023-01-22T05:50:54.111Z,0.58
2023-01-22T05:52:59.624Z,0.58
2023-01-22T05:55:04.850Z,0.63
2023-01-22T05:57:10.165Z,0.64
2023-01-22T05:59:15.157Z,0.64
2023-01-22T06:01:20.395Z,0.63
2023-01-22T06:03:25.504Z,0.64
2023-01-22T06:05:31.075Z,0.66
2023-01-22T06:07:36.664Z,0.62
2023-01-22T06:09:41.719Z,0.59
2023-01-22T06:11:47.272Z,0.66
2023-01-22T06:13:52.454Z,0.66
2023-01-22T06:15:57.723Z,0.62
2023-01-22T06:18:03.935Z,0.61
2023-01-22T06:20:09.084Z,0.67
2023-01-22T06:22:14.160Z,0.65
2023-01-22T06:24:19.317Z,0.63
2023-01-22T06:26:24.646Z,0.64
2023-01-22T06:28:29.801Z,0.65
2023-01-22T06:30:35.022Z,0.65
2023-01-22T06:32:40.444Z,0.65
2023-01-22T06:34:45.829Z,0.68
2023-01-22T06:36:50.888Z,0.7
2023-01-22T06:38:56.682Z,0.69
2023-01-22T06:41:01.949Z,0.68
2023-01-22T06:43:09.181Z,0.71
2023-01-22T06:45:15.711Z,0.69
2023-01-22T06:47:21.000Z,0.64
2023-01-22T06:49:26.331Z,0.69
2023-01-22T06:51:31.674Z,0.71
2023-01-22T06:53:37.000Z,0.69
2023-01-22T06:55:42.357Z,0.67
2023-01-22T06:57:47.473Z,0.71
2023-01-22T06:59:52.590Z,0.72
2023-01-22T07:01:58.571Z,0.73
2023-01-22T07:04:04.242Z,0.75
2023-01-22T07:06:09.557Z,0.74
2023-01-22T07:08:14.973Z,0.77
2023-01-22T07:10:22.212Z,0.75
2023-01-22T07:12:27.730Z,0.76
2023-01-22T07:14:37.316Z,0.78
2023-01-22T07:16:43.889Z,0.76
2023-01-22T07:18:49.776Z,0.77
2023-01-22T07:20:55.674Z,0.78
2023-01-22T07:23:00.789Z,0.81
2023-01-22T07:25:05.963Z,0.79
2023-01-22T07:27:11.450Z,0.8
2023-01-22T07:29:17.223Z,0.76
2023-01-22T07:31:23.391Z,0.77
2023-01-22T07:33:29.774Z,0.74
2023-01-22T07:35:35.110Z,0.75
2023-01-22T07:37:40.832Z,0.73
2023-01-22T07:39:52.172Z,0.75
2023-01-22T07:41:58.284Z,0.77
2023-01-22T07:44:04.422Z,0.76
2023-01-22T07:46:10.799Z,0.75
2023-01-22T07:48:18.416Z,0.78
2023-01-22T07:50:24.662Z,0.81
2023-01-22T07:52:30.883Z,0.77
2023-01-22T07:54:36.822Z,0.8
2023-01-22T07:56:43.901Z,0.83
2023-01-22T07:58:50.369Z,0.81
2023-01-22T08:00:56.372Z,0.8
2023-01-22T08:03:02.687Z,0.83
2023-01-22T08:05:08.989Z,0.8
2023-01-22T08:07:15.003Z,0.79
2023-01-22T08:09:21.415Z,0.78
2023-01-22T08:11:27.524Z,0.81
2023-01-22T08:13:33.573Z,0.82
2023-01-22T08:15:39.322Z,0.79
2023-01-22T08:17:45.689Z,0.83
2023-01-22T08:19:52.166Z,0.84
2023-01-22T08:21:58.899Z,0.83
2023-01-22T08:24:05.645Z,0.83
2023-01-22T08:26:11.884Z,0.85
2023-01-22T08:28:17.716Z,0.8
2023-01-22T08:30:23.881Z,0.79
2023-01-22T08:32:30.742Z,0.76
2023-01-22T08:34:37.222Z,0.75
2023-01-22T08:36:43.309Z,0.79
2023-01-22T08:38:49.772Z,0.84
2023-01-22T08:40:56.123Z,0.83
2023-01-22T08:43:02.450Z,0.82
2023-01-22T08:45:09.066Z,0.8
2023-01-22T08:47:14.563Z,0.84
2023-01-22T08:49:21.016Z,0.83
2023-01-22T08:51:27.263Z,0.81
2023-01-22T08:53:36.409Z,0.79
2023-01-22T08:55:42.514Z,0.78
2023-01-22T08:57:48.735Z,0.84
2023-01-22T09:00:00.934Z,0.91
2023-01-22T09:02:07.719Z,0.94
2023-01-22T09:04:14.383Z,0.98
2023-01-22T09:06:20.838Z,0.98
2023-01-22T09:08:26.858Z,0.96
2023-01-22T09:10:33.294Z,1.03
2023-01-22T09:12:39.401Z,0.96
2023-01-22T09:14:45.465Z,1.01
2023-01-22T09:16:51.575Z,1.08
2023-01-22T09:18:57.781Z,0.97
2023-01-22T09:21:04.013Z,1.03
2023-01-22T09:23:10.261Z,1.01
2023-01-22T09:25:19.433Z,0.97
2023-01-22T09:27:26.042Z,0.95
2023-01-22T09:29:31.932Z,0.97
2023-01-22T09:31:38.430Z,0.96
2023-01-22T09:33:44.541Z,0.92
2023-01-22T09:35:52.687Z,0.94
2023-01-22T09:37:59.914Z,1.03
2023-01-22T09:40:06.849Z,0.97
2023-01-22T09:42:12.721Z,0.97
2023-01-22T09:44:18.774Z,1
2023-01-22T09:46:24.229Z,0.96
2023-01-22T09:48:30.625Z,1.02
2023-01-22T09:50:36.768Z,1
2023-01-22T09:52:42.999Z,1.01
